sensor_id;sensor_type;location;lat;lon;timestamp;pressure;altitude;pressure_sealevel;temperature;humidity
48718;BME280;34521;33.042;-96.586;2023-12-20T00:00:25;100308.69;;;21.74;19.60
48718;BME280;34521;33.042;-96.586;2023-12-20T00:02:52;100311.88;;;21.82;19.68
48718;BME280;34521;33.042;-96.586;2023-12-20T00:05:16;100314.48;;;21.85;19.70
48718;BME280;34521;33.042;-96.586;2023-12-20T00:07:41;100307.76;;;21.51;19.75
48718;BME280;34521;33.042;-96.586;2023-12-20T00:10:07;100307.21;;;21.61;19.49
48718;BME280;34521;33.042;-96.586;2023-12-20T00:12:31;100311.58;;;21.60;19.83
48718;BME280;34521;33.042;-96.586;2023-12-20T00:14:55;100311.02;;;21.42;19.80
48718;BME280;34521;33.042;-96.586;2023-12-20T00:17:21;100304.67;;;21.42;19.81
48718;BME280;34521;33.042;-96.586;2023-12-20T00:19:45;100309.37;;;20.97;20.33
48718;BME280;34521;33.042;-96.586;2023-12-20T00:22:11;100313.68;;;20.55;20.42
48718;BME280;34521;33.042;-96.586;2023-12-20T00:24:37;100315.59;;;21.45;19.95
48718;BME280;34521;33.042;-96.586;2023-12-20T00:27:00;100317.63;;;20.43;20.35
48718;BME280;34521;33.042;-96.586;2023-12-20T00:29:26;100316.43;;;20.82;20.42
48718;BME280;34521;33.042;-96.586;2023-12-20T00:31:50;100327.41;;;17.23;23.71
48718;BME280;34521;33.042;-96.586;2023-12-20T00:34:16;100333.07;;;18.66;22.75
48718;BME280;34521;33.042;-96.586;2023-12-20T00:36:41;100331.31;;;17.85;23.83
48718;BME280;34521;33.042;-96.586;2023-12-20T00:39:07;100337.25;;;19.28;22.66
48718;BME280;34521;33.042;-96.586;2023-12-20T00:41:32;100340.96;;;20.16;21.43
48718;BME280;34521;33.042;-96.586;2023-12-20T00:43:56;100339.00;;;21.02;20.61
48718;BME280;34521;33.042;-96.586;2023-12-20T00:46:23;100338.11;;;21.12;20.30
48718;BME280;34521;33.042;-96.586;2023-12-20T00:48:48;100338.10;;;21.50;20.09
48718;BME280;34521;33.042;-96.586;2023-12-20T00:51:12;100331.64;;;22.02;19.50
48718;BME280;34521;33.042;-96.586;2023-12-20T00:53:38;100332.46;;;22.38;19.30
48718;BME280;34521;33.042;-96.586;2023-12-20T00:56:02;100329.82;;;22.92;19.14
48718;BME280;34521;33.042;-96.586;2023-12-20T00:58:26;100333.14;;;22.90;19.10
48718;BME280;34521;33.042;-96.586;2023-12-20T01:00:52;100333.41;;;22.83;19.12
48718;BME280;34521;33.042;-96.586;2023-12-20T01:03:17;100333.50;;;22.87;19.23
48718;BME280;34521;33.042;-96.586;2023-12-20T01:05:43;100334.28;;;22.83;19.40
48718;BME280;34521;33.042;-96.586;2023-12-20T01:08:08;100334.60;;;22.55;19.64
48718;BME280;34521;33.042;-96.586;2023-12-20T01:10:32;100341.42;;;22.90;19.50
48718;BME280;34521;33.042;-96.586;2023-12-20T01:12:58;100336.80;;;22.66;19.95
48718;BME280;34521;33.042;-96.586;2023-12-20T01:15:23;100340.85;;;23.19;19.94
48718;BME280;34521;33.042;-96.586;2023-12-20T01:17:48;100338.14;;;23.32;19.79
48718;BME280;34521;33.042;-96.586;2023-12-20T01:20:13;100334.19;;;23.56;19.70
48718;BME280;34521;33.042;-96.586;2023-12-20T01:22:37;100328.49;;;23.65;19.26
48718;BME280;34521;33.042;-96.586;2023-12-20T01:25:05;100326.96;;;23.99;18.90
48718;BME280;34521;33.042;-96.586;2023-12-20T01:27:27;100324.70;;;23.38;19.39
48718;BME280;34521;33.042;-96.586;2023-12-20T01:29:53;100322.80;;;23.12;19.38
48718;BME280;34521;33.042;-96.586;2023-12-20T01:32:19;100327.58;;;22.84;19.56
48718;BME280;34521;33.042;-96.586;2023-12-20T01:34:43;100327.91;;;22.32;20.10
48718;BME280;34521;33.042;-96.586;2023-12-20T01:37:08;100326.48;;;22.36;20.10
48718;BME280;34521;33.042;-96.586;2023-12-20T01:39:33;100329.42;;;22.40;20.11
48718;BME280;34521;33.042;-96.586;2023-12-20T01:41:59;100330.85;;;22.09;20.33
48718;BME280;34521;33.042;-96.586;2023-12-20T01:44:24;100328.08;;;22.15;20.19
48718;BME280;34521;33.042;-96.586;2023-12-20T01:46:50;100327.78;;;21.70;20.69
48718;BME280;34521;33.042;-96.586;2023-12-20T01:49:13;100330.88;;;21.91;20.70
48718;BME280;34521;33.042;-96.586;2023-12-20T01:51:39;100329.72;;;21.66;20.54
48718;BME280;34521;33.042;-96.586;2023-12-20T01:54:04;100324.78;;;21.88;20.59
48718;BME280;34521;33.042;-96.586;2023-12-20T01:56:30;100324.15;;;21.57;20.86
48718;BME280;34521;33.042;-96.586;2023-12-20T01:58:54;100323.44;;;22.13;20.64
48718;BME280;34521;33.042;-96.586;2023-12-20T02:01:19;100320.78;;;23.03;19.60
48718;BME280;34521;33.042;-96.586;2023-12-20T02:03:43;100322.09;;;23.47;19.10
48718;BME280;34521;33.042;-96.586;2023-12-20T02:06:10;100322.75;;;23.34;19.45
48718;BME280;34521;33.042;-96.586;2023-12-20T02:08:35;100326.66;;;22.34;20.01
48718;BME280;34521;33.042;-96.586;2023-12-20T02:11:03;100330.36;;;22.31;20.24
48718;BME280;34521;33.042;-96.586;2023-12-20T02:13:24;100330.19;;;21.92;20.37
48718;BME280;34521;33.042;-96.586;2023-12-20T02:15:50;100333.21;;;21.68;20.77
48718;BME280;34521;33.042;-96.586;2023-12-20T02:18:15;100337.51;;;21.91;20.70
48718;BME280;34521;33.042;-96.586;2023-12-20T02:20:39;100341.63;;;21.65;20.75
48718;BME280;34521;33.042;-96.586;2023-12-20T02:23:05;100341.50;;;21.68;20.70
48718;BME280;34521;33.042;-96.586;2023-12-20T02:25:30;100349.29;;;21.34;20.97
48718;BME280;34521;33.042;-96.586;2023-12-20T02:27:56;100350.82;;;21.27;20.77
48718;BME280;34521;33.042;-96.586;2023-12-20T02:30:20;100352.26;;;21.72;20.78
48718;BME280;34521;33.042;-96.586;2023-12-20T02:32:45;100354.79;;;19.15;23.31
48718;BME280;34521;33.042;-96.586;2023-12-20T02:35:10;100341.28;;;20.08;22.45
48718;BME280;34521;33.042;-96.586;2023-12-20T02:37:36;100346.23;;;19.70;22.97
48718;BME280;34521;33.042;-96.586;2023-12-20T02:40:02;100345.27;;;20.79;21.86
48718;BME280;34521;33.042;-96.586;2023-12-20T02:42:26;100347.31;;;22.35;20.39
48718;BME280;34521;33.042;-96.586;2023-12-20T02:44:51;100348.94;;;22.86;19.79
48718;BME280;34521;33.042;-96.586;2023-12-20T02:47:15;100358.12;;;22.66;19.88
48718;BME280;34521;33.042;-96.586;2023-12-20T02:49:40;100364.83;;;21.72;20.45
48718;BME280;34521;33.042;-96.586;2023-12-20T02:52:06;100368.80;;;21.80;20.43
48718;BME280;34521;33.042;-96.586;2023-12-20T02:54:30;100374.05;;;21.28;20.63
48718;BME280;34521;33.042;-96.586;2023-12-20T02:56:57;100371.04;;;21.84;20.60
48718;BME280;34521;33.042;-96.586;2023-12-20T02:59:21;100371.82;;;22.02;20.12
48718;BME280;34521;33.042;-96.586;2023-12-20T03:01:47;100373.65;;;21.52;20.74
48718;BME280;34521;33.042;-96.586;2023-12-20T03:04:11;100376.72;;;20.93;21.03
48718;BME280;34521;33.042;-96.586;2023-12-20T03:06:37;100375.49;;;21.08;21.13
48718;BME280;34521;33.042;-96.586;2023-12-20T03:09:01;100376.37;;;20.61;21.22
48718;BME280;34521;33.042;-96.586;2023-12-20T03:11:27;100375.13;;;22.10;19.89
48718;BME280;34521;33.042;-96.586;2023-12-20T03:13:52;100369.49;;;22.65;19.50
48718;BME280;34521;33.042;-96.586;2023-12-20T03:16:16;100373.84;;;22.51;19.70
48718;BME280;34521;33.042;-96.586;2023-12-20T03:18:42;100370.53;;;21.74;20.28
48718;BME280;34521;33.042;-96.586;2023-12-20T03:21:07;100376.37;;;21.38;20.83
48718;BME280;34521;33.042;-96.586;2023-12-20T03:23:33;100381.94;;;20.92;21.24
48718;BME280;34521;33.042;-96.586;2023-12-20T03:25:59;100382.00;;;20.67;21.47
48718;BME280;34521;33.042;-96.586;2023-12-20T03:28:21;100383.87;;;20.50;21.62
48718;BME280;34521;33.042;-96.586;2023-12-20T03:30:48;100383.60;;;20.79;21.47
48718;BME280;34521;33.042;-96.586;2023-12-20T03:33:13;100381.38;;;21.37;20.88
48718;BME280;34521;33.042;-96.586;2023-12-20T03:35:36;100380.25;;;22.80;19.58
48718;BME280;34521;33.042;-96.586;2023-12-20T03:38:05;100383.11;;;22.52;19.70
48718;BME280;34521;33.042;-96.586;2023-12-20T03:40:28;100386.00;;;21.71;20.54
48718;BME280;34521;33.042;-96.586;2023-12-20T03:42:52;100382.35;;;20.97;21.02
48718;BME280;34521;33.042;-96.586;2023-12-20T03:45:18;100379.89;;;20.93;21.25
48718;BME280;34521;33.042;-96.586;2023-12-20T03:47:42;100382.57;;;20.57;21.36
48718;BME280;34521;33.042;-96.586;2023-12-20T03:50:08;100383.97;;;20.87;21.30
48718;BME280;34521;33.042;-96.586;2023-12-20T03:52:32;100383.18;;;20.33;21.71
48718;BME280;34521;33.042;-96.586;2023-12-20T03:54:59;100386.00;;;20.68;21.50
48718;BME280;34521;33.042;-96.586;2023-12-20T03:57:23;100385.74;;;21.02;21.21
48718;BME280;34521;33.042;-96.586;2023-12-20T03:59:47;100381.13;;;21.46;20.67
48718;BME280;34521;33.042;-96.586;2023-12-20T04:02:14;100382.04;;;21.96;20.21
48718;BME280;34521;33.042;-96.586;2023-12-20T04:04:38;100378.69;;;22.94;19.51
48718;BME280;34521;33.042;-96.586;2023-12-20T04:07:03;100388.92;;;21.69;20.32
48718;BME280;34521;33.042;-96.586;2023-12-20T04:09:28;100395.23;;;20.89;20.98
48718;BME280;34521;33.042;-96.586;2023-12-20T04:11:53;100392.62;;;21.07;21.11
48718;BME280;34521;33.042;-96.586;2023-12-20T04:14:18;100395.89;;;20.75;21.34
48718;BME280;34521;33.042;-96.586;2023-12-20T04:16:44;100395.24;;;20.56;21.49
48718;BME280;34521;33.042;-96.586;2023-12-20T04:19:09;100399.03;;;20.51;21.54
48718;BME280;34521;33.042;-96.586;2023-12-20T04:21:33;100397.96;;;20.53;21.34
48718;BME280;34521;33.042;-96.586;2023-12-20T04:23:58;100397.69;;;20.70;21.34
48718;BME280;34521;33.042;-96.586;2023-12-20T04:26:23;100397.12;;;21.63;20.35
48718;BME280;34521;33.042;-96.586;2023-12-20T04:28:48;100396.62;;;21.92;20.14
48718;BME280;34521;33.042;-96.586;2023-12-20T04:31:13;100391.61;;;22.65;19.70
48718;BME280;34521;33.042;-96.586;2023-12-20T04:33:38;100397.47;;;22.59;19.52
48718;BME280;34521;33.042;-96.586;2023-12-20T04:36:05;100395.53;;;22.61;19.75
48718;BME280;34521;33.042;-96.586;2023-12-20T04:38:29;100397.45;;;22.38;19.76
48718;BME280;34521;33.042;-96.586;2023-12-20T04:40:55;100400.96;;;21.28;20.81
48718;BME280;34521;33.042;-96.586;2023-12-20T04:43:19;100402.42;;;20.83;21.18
48718;BME280;34521;33.042;-96.586;2023-12-20T04:45:44;100400.45;;;20.94;20.94
48718;BME280;34521;33.042;-96.586;2023-12-20T04:48:10;100404.18;;;21.47;20.67
48718;BME280;34521;33.042;-96.586;2023-12-20T04:50:35;100403.64;;;21.90;20.21
48718;BME280;34521;33.042;-96.586;2023-12-20T04:53:00;100404.57;;;21.49;20.44
48718;BME280;34521;33.042;-96.586;2023-12-20T04:55:24;100404.65;;;21.83;20.18
48718;BME280;34521;33.042;-96.586;2023-12-20T04:57:49;100401.95;;;22.15;19.84
48718;BME280;34521;33.042;-96.586;2023-12-20T05:00:15;100403.85;;;21.43;20.34
48718;BME280;34521;33.042;-96.586;2023-12-20T05:02:40;100401.99;;;21.06;20.93
48718;BME280;34521;33.042;-96.586;2023-12-20T05:05:05;100402.33;;;20.58;21.13
48718;BME280;34521;33.042;-96.586;2023-12-20T05:07:29;100403.85;;;20.41;21.37
48718;BME280;34521;33.042;-96.586;2023-12-20T05:09:55;100404.61;;;20.48;21.28
48718;BME280;34521;33.042;-96.586;2023-12-20T05:12:19;100401.23;;;20.60;21.36
48718;BME280;34521;33.042;-96.586;2023-12-20T05:14:44;100393.01;;;21.28;20.57
48718;BME280;34521;33.042;-96.586;2023-12-20T05:17:10;100397.24;;;21.07;20.45
48718;BME280;34521;33.042;-96.586;2023-12-20T05:19:36;100392.00;;;21.66;20.23
48718;BME280;34521;33.042;-96.586;2023-12-20T05:22:03;100388.18;;;22.51;19.59
48718;BME280;34521;33.042;-96.586;2023-12-20T05:24:27;100391.33;;;22.23;19.75
48718;BME280;34521;33.042;-96.586;2023-12-20T05:26:51;100390.61;;;21.05;20.67
48718;BME280;34521;33.042;-96.586;2023-12-20T05:29:17;100389.57;;;20.77;21.15
48718;BME280;34521;33.042;-96.586;2023-12-20T05:31:40;100393.02;;;20.67;21.30
48718;BME280;34521;33.042;-96.586;2023-12-20T05:34:05;100391.98;;;20.98;20.94
48718;BME280;34521;33.042;-96.586;2023-12-20T05:36:31;100390.53;;;21.59;20.47
48718;BME280;34521;33.042;-96.586;2023-12-20T05:38:57;100388.52;;;21.56;20.34
48718;BME280;34521;33.042;-96.586;2023-12-20T05:41:21;100385.83;;;21.49;20.61
48718;BME280;34521;33.042;-96.586;2023-12-20T05:43:46;100385.26;;;21.38;20.36
48718;BME280;34521;33.042;-96.586;2023-12-20T05:46:12;100378.63;;;22.04;19.98
48718;BME280;34521;33.042;-96.586;2023-12-20T05:48:36;100375.28;;;22.33;19.64
48718;BME280;34521;33.042;-96.586;2023-12-20T05:51:01;100372.30;;;22.68;19.59
48718;BME280;34521;33.042;-96.586;2023-12-20T05:53:28;100369.07;;;21.29;20.68
48718;BME280;34521;33.042;-96.586;2023-12-20T05:55:52;100362.55;;;20.73;21.20
48718;BME280;34521;33.042;-96.586;2023-12-20T05:58:16;100362.36;;;20.28;21.41
48718;BME280;34521;33.042;-96.586;2023-12-20T06:00:42;100355.79;;;20.24;21.65
48718;BME280;34521;33.042;-96.586;2023-12-20T06:03:08;100356.57;;;20.48;21.45
48718;BME280;34521;33.042;-96.586;2023-12-20T06:05:32;100356.75;;;20.45;21.44
48718;BME280;34521;33.042;-96.586;2023-12-20T06:07:56;100356.36;;;21.23;20.82
48718;BME280;34521;33.042;-96.586;2023-12-20T06:10:21;100354.32;;;21.72;20.19
48718;BME280;34521;33.042;-96.586;2023-12-20T06:12:46;100350.47;;;22.30;19.81
48718;BME280;34521;33.042;-96.586;2023-12-20T06:15:12;100348.29;;;22.56;19.63
48718;BME280;34521;33.042;-96.586;2023-12-20T06:17:38;100346.41;;;21.97;20.14
48718;BME280;34521;33.042;-96.586;2023-12-20T06:20:02;100351.78;;;21.15;20.86
48718;BME280;34521;33.042;-96.586;2023-12-20T06:22:27;100353.44;;;20.44;21.28
48718;BME280;34521;33.042;-96.586;2023-12-20T06:24:53;100350.96;;;20.71;21.27
48718;BME280;34521;33.042;-96.586;2023-12-20T06:27:17;100349.94;;;20.80;21.19
48718;BME280;34521;33.042;-96.586;2023-12-20T06:29:43;100350.55;;;20.51;21.41
48718;BME280;34521;33.042;-96.586;2023-12-20T06:32:08;100354.06;;;20.31;21.56
48718;BME280;34521;33.042;-96.586;2023-12-20T06:34:33;100353.49;;;20.67;21.23
48718;BME280;34521;33.042;-96.586;2023-12-20T06:36:58;100352.42;;;21.08;20.80
48718;BME280;34521;33.042;-96.586;2023-12-20T06:39:22;100347.64;;;21.94;20.13
48718;BME280;34521;33.042;-96.586;2023-12-20T06:41:48;100346.77;;;22.31;19.78
48718;BME280;34521;33.042;-96.586;2023-12-20T06:44:13;100343.60;;;22.51;19.72
48718;BME280;34521;33.042;-96.586;2023-12-20T06:46:39;100346.32;;;21.37;20.44
48718;BME280;34521;33.042;-96.586;2023-12-20T06:49:03;100342.21;;;20.79;21.16
48718;BME280;34521;33.042;-96.586;2023-12-20T06:51:30;100343.45;;;20.73;21.23
48718;BME280;34521;33.042;-96.586;2023-12-20T06:53:53;100343.81;;;20.40;21.32
48718;BME280;34521;33.042;-96.586;2023-12-20T06:56:19;100342.57;;;20.66;21.32
48718;BME280;34521;33.042;-96.586;2023-12-20T06:58:45;100343.07;;;21.14;20.95
48718;BME280;34521;33.042;-96.586;2023-12-20T07:01:12;100342.27;;;20.82;21.19
48718;BME280;34521;33.042;-96.586;2023-12-20T07:03:34;100340.52;;;21.38;20.63
48718;BME280;34521;33.042;-96.586;2023-12-20T07:05:58;100339.99;;;21.36;20.48
48718;BME280;34521;33.042;-96.586;2023-12-20T07:08:23;100339.33;;;21.90;19.94
48718;BME280;34521;33.042;-96.586;2023-12-20T07:10:49;100333.56;;;22.49;19.62
48718;BME280;34521;33.042;-96.586;2023-12-20T07:13:14;100329.78;;;21.97;19.87
48718;BME280;34521;33.042;-96.586;2023-12-20T07:15:40;100329.27;;;20.98;20.75
48718;BME280;34521;33.042;-96.586;2023-12-20T07:18:05;100327.02;;;20.56;21.13
48718;BME280;34521;33.042;-96.586;2023-12-20T07:20:29;100328.85;;;20.41;21.45
48718;BME280;34521;33.042;-96.586;2023-12-20T07:22:54;100328.19;;;20.73;21.23
48718;BME280;34521;33.042;-96.586;2023-12-20T07:25:20;100324.27;;;20.57;21.32
48718;BME280;34521;33.042;-96.586;2023-12-20T07:27:45;100325.53;;;20.71;21.22
48718;BME280;34521;33.042;-96.586;2023-12-20T07:30:11;100323.76;;;21.08;20.74
48718;BME280;34521;33.042;-96.586;2023-12-20T07:32:35;100326.71;;;19.11;22.45
48718;BME280;34521;33.042;-96.586;2023-12-20T07:34:59;100322.20;;;21.39;20.79
48718;BME280;34521;33.042;-96.586;2023-12-20T07:37:24;100320.32;;;22.21;19.92
48718;BME280;34521;33.042;-96.586;2023-12-20T07:39:51;100322.03;;;22.88;19.51
48718;BME280;34521;33.042;-96.586;2023-12-20T07:42:15;100331.00;;;21.99;19.90
48718;BME280;34521;33.042;-96.586;2023-12-20T07:44:40;100330.60;;;21.44;20.58
48718;BME280;34521;33.042;-96.586;2023-12-20T07:47:06;100333.46;;;20.68;21.03
48718;BME280;34521;33.042;-96.586;2023-12-20T07:49:30;100334.66;;;20.49;21.24
48718;BME280;34521;33.042;-96.586;2023-12-20T07:51:54;100339.53;;;20.89;21.07
48718;BME280;34521;33.042;-96.586;2023-12-20T07:54:20;100337.37;;;20.86;21.09
48718;BME280;34521;33.042;-96.586;2023-12-20T07:56:46;100339.83;;;20.64;21.30
48718;BME280;34521;33.042;-96.586;2023-12-20T07:59:10;100336.76;;;20.73;21.03
48718;BME280;34521;33.042;-96.586;2023-12-20T08:01:35;100339.26;;;21.55;20.50
48718;BME280;34521;33.042;-96.586;2023-12-20T08:04:00;100340.67;;;21.39;20.44
48718;BME280;34521;33.042;-96.586;2023-12-20T08:06:25;100342.66;;;22.23;19.89
48718;BME280;34521;33.042;-96.586;2023-12-20T08:08:51;100344.75;;;22.39;19.72
48718;BME280;34521;33.042;-96.586;2023-12-20T08:11:15;100347.94;;;21.58;20.42
48718;BME280;34521;33.042;-96.586;2023-12-20T08:13:40;100351.12;;;21.06;20.84
48718;BME280;34521;33.042;-96.586;2023-12-20T08:16:06;100349.05;;;20.62;21.28
48718;BME280;34521;33.042;-96.586;2023-12-20T08:18:31;100350.59;;;20.46;21.42
48718;BME280;34521;33.042;-96.586;2023-12-20T08:20:56;100349.84;;;20.32;21.28
48718;BME280;34521;33.042;-96.586;2023-12-20T08:23:22;100350.19;;;20.78;21.10
48718;BME280;34521;33.042;-96.586;2023-12-20T08:25:46;100347.48;;;21.16;20.74
48718;BME280;34521;33.042;-96.586;2023-12-20T08:28:11;100350.37;;;20.56;21.05
48718;BME280;34521;33.042;-96.586;2023-12-20T08:30:37;100347.95;;;22.16;19.82
48718;BME280;34521;33.042;-96.586;2023-12-20T08:33:02;100350.41;;;22.10;19.80
48718;BME280;34521;33.042;-96.586;2023-12-20T08:35:27;100344.91;;;22.38;19.44
48718;BME280;34521;33.042;-96.586;2023-12-20T08:37:52;100347.09;;;21.84;20.21
48718;BME280;34521;33.042;-96.586;2023-12-20T08:40:18;100357.80;;;20.67;20.98
48718;BME280;34521;33.042;-96.586;2023-12-20T08:42:41;100353.36;;;20.71;21.20
48718;BME280;34521;33.042;-96.586;2023-12-20T08:45:07;100352.42;;;20.27;21.38
48718;BME280;34521;33.042;-96.586;2023-12-20T08:47:33;100351.61;;;20.44;21.40
48718;BME280;34521;33.042;-96.586;2023-12-20T08:49:57;100348.52;;;21.01;20.78
48718;BME280;34521;33.042;-96.586;2023-12-20T08:52:22;100349.04;;;20.84;21.05
48718;BME280;34521;33.042;-96.586;2023-12-20T08:54:47;100350.06;;;21.71;20.15
48718;BME280;34521;33.042;-96.586;2023-12-20T08:57:13;100350.51;;;22.50;19.62
48718;BME280;34521;33.042;-96.586;2023-12-20T08:59:37;100347.08;;;21.46;20.15
48718;BME280;34521;33.042;-96.586;2023-12-20T09:02:03;100343.42;;;22.25;19.86
48718;BME280;34521;33.042;-96.586;2023-12-20T09:04:27;100342.87;;;21.56;19.97
48718;BME280;34521;33.042;-96.586;2023-12-20T09:06:52;100348.91;;;20.86;20.79
48718;BME280;34521;33.042;-96.586;2023-12-20T09:09:17;100349.73;;;20.57;21.25
48718;BME280;34521;33.042;-96.586;2023-12-20T09:11:43;100349.53;;;20.55;21.29
48718;BME280;34521;33.042;-96.586;2023-12-20T09:14:08;100348.58;;;20.66;21.06
48718;BME280;34521;33.042;-96.586;2023-12-20T09:16:33;100350.03;;;20.66;21.19
48718;BME280;34521;33.042;-96.586;2023-12-20T09:18:58;100343.68;;;21.45;20.53
48718;BME280;34521;33.042;-96.586;2023-12-20T09:21:23;100344.17;;;21.52;20.34
48718;BME280;34521;33.042;-96.586;2023-12-20T09:23:47;100346.55;;;21.68;20.00
48718;BME280;34521;33.042;-96.586;2023-12-20T09:26:13;100344.17;;;22.58;19.64
48718;BME280;34521;33.042;-96.586;2023-12-20T09:28:40;100342.99;;;22.15;19.57
48718;BME280;34521;33.042;-96.586;2023-12-20T09:31:06;100342.76;;;21.59;20.19
48718;BME280;34521;33.042;-96.586;2023-12-20T09:33:28;100345.40;;;21.32;20.51
48718;BME280;34521;33.042;-96.586;2023-12-20T09:35:55;100343.67;;;20.73;21.19
48718;BME280;34521;33.042;-96.586;2023-12-20T09:38:19;100348.03;;;20.85;21.10
48718;BME280;34521;33.042;-96.586;2023-12-20T09:40:44;100347.34;;;20.57;21.16
48718;BME280;34521;33.042;-96.586;2023-12-20T09:43:13;100346.55;;;20.53;21.31
48718;BME280;34521;33.042;-96.586;2023-12-20T09:45:35;100341.49;;;20.86;21.04
48718;BME280;34521;33.042;-96.586;2023-12-20T09:47:59;100341.20;;;22.02;20.05
48718;BME280;34521;33.042;-96.586;2023-12-20T09:50:25;100347.29;;;21.35;20.45
48718;BME280;34521;33.042;-96.586;2023-12-20T09:52:51;100343.46;;;21.75;20.02
48718;BME280;34521;33.042;-96.586;2023-12-20T09:55:14;100347.43;;;22.45;19.59
48718;BME280;34521;33.042;-96.586;2023-12-20T09:57:42;100346.52;;;22.55;19.49
48718;BME280;34521;33.042;-96.586;2023-12-20T10:00:05;100356.15;;;21.46;20.50
48718;BME280;34521;33.042;-96.586;2023-12-20T10:02:32;100354.18;;;20.99;20.77
48718;BME280;34521;33.042;-96.586;2023-12-20T10:04:55;100355.11;;;20.80;21.20
48718;BME280;34521;33.042;-96.586;2023-12-20T10:07:21;100354.18;;;20.41;21.30
48718;BME280;34521;33.042;-96.586;2023-12-20T10:09:45;100357.53;;;20.82;21.16
48718;BME280;34521;33.042;-96.586;2023-12-20T10:12:12;100359.88;;;20.77;21.18
48718;BME280;34521;33.042;-96.586;2023-12-20T10:14:35;100355.24;;;21.15;20.86
48718;BME280;34521;33.042;-96.586;2023-12-20T10:17:03;100352.57;;;22.00;19.97
48718;BME280;34521;33.042;-96.586;2023-12-20T10:19:26;100352.40;;;21.70;20.10
48718;BME280;34521;33.042;-96.586;2023-12-20T10:21:50;100353.64;;;21.67;20.27
48718;BME280;34521;33.042;-96.586;2023-12-20T10:24:18;100349.34;;;22.68;19.64
48718;BME280;34521;33.042;-96.586;2023-12-20T10:26:40;100354.60;;;22.31;19.81
48718;BME280;34521;33.042;-96.586;2023-12-20T10:29:07;100355.80;;;22.66;19.65
48718;BME280;34521;33.042;-96.586;2023-12-20T10:31:32;100353.21;;;21.72;20.18
48718;BME280;34521;33.042;-96.586;2023-12-20T10:33:57;100357.64;;;21.15;20.62
48718;BME280;34521;33.042;-96.586;2023-12-20T10:36:20;100365.74;;;21.11;20.86
48718;BME280;34521;33.042;-96.586;2023-12-20T10:38:48;100363.45;;;20.39;21.48
48718;BME280;34521;33.042;-96.586;2023-12-20T10:41:13;100368.86;;;21.80;20.11
48718;BME280;34521;33.042;-96.586;2023-12-20T10:43:37;100363.96;;;21.97;20.05
48718;BME280;34521;33.042;-96.586;2023-12-20T10:46:01;100368.14;;;20.93;20.80
48718;BME280;34521;33.042;-96.586;2023-12-20T10:48:26;100370.46;;;21.71;20.21
48718;BME280;34521;33.042;-96.586;2023-12-20T10:50:52;100367.18;;;22.92;19.43
48718;BME280;34521;33.042;-96.586;2023-12-20T10:53:17;100371.29;;;21.44;20.33
48718;BME280;34521;33.042;-96.586;2023-12-20T10:55:41;100374.11;;;20.92;20.81
48718;BME280;34521;33.042;-96.586;2023-12-20T10:58:09;100373.31;;;20.32;21.34
48718;BME280;34521;33.042;-96.586;2023-12-20T11:00:33;100376.31;;;20.62;21.32
48718;BME280;34521;33.042;-96.586;2023-12-20T11:03:00;100374.61;;;20.24;21.42
48718;BME280;34521;33.042;-96.586;2023-12-20T11:05:29;100377.81;;;21.16;20.87
48718;BME280;34521;33.042;-96.586;2023-12-20T11:07:50;100378.72;;;21.37;20.42
48718;BME280;34521;33.042;-96.586;2023-12-20T11:10:16;100378.13;;;21.60;20.16
48718;BME280;34521;33.042;-96.586;2023-12-20T11:12:42;100376.85;;;21.32;20.33
48718;BME280;34521;33.042;-96.586;2023-12-20T11:15:01;100380.17;;;22.30;19.76
48718;BME280;34521;33.042;-96.586;2023-12-20T11:17:27;100385.86;;;22.73;19.49
48718;BME280;34521;33.042;-96.586;2023-12-20T11:20:06;100387.30;;;21.76;20.13
48718;BME280;34521;33.042;-96.586;2023-12-20T11:22:17;100393.28;;;20.92;20.62
48718;BME280;34521;33.042;-96.586;2023-12-20T11:24:47;100395.52;;;21.08;20.75
48718;BME280;34521;33.042;-96.586;2023-12-20T11:27:09;100398.54;;;21.46;20.48
48718;BME280;34521;33.042;-96.586;2023-12-20T11:29:35;100402.55;;;20.89;21.12
48718;BME280;34521;33.042;-96.586;2023-12-20T11:32:02;100399.85;;;21.82;20.17
48718;BME280;34521;33.042;-96.586;2023-12-20T11:34:23;100401.86;;;21.95;20.24
48718;BME280;34521;33.042;-96.586;2023-12-20T11:36:47;100403.16;;;21.71;20.18
48718;BME280;34521;33.042;-96.586;2023-12-20T11:39:18;100403.99;;;21.13;20.57
48718;BME280;34521;33.042;-96.586;2023-12-20T11:41:38;100406.47;;;22.44;19.74
48718;BME280;34521;33.042;-96.586;2023-12-20T11:44:02;100410.15;;;22.90;19.29
48718;BME280;34521;33.042;-96.586;2023-12-20T11:46:28;100411.15;;;22.07;19.89
48718;BME280;34521;33.042;-96.586;2023-12-20T11:48:52;100410.19;;;21.37;20.55
48718;BME280;34521;33.042;-96.586;2023-12-20T11:51:19;100414.13;;;21.56;20.60
48718;BME280;34521;33.042;-96.586;2023-12-20T11:53:43;100417.55;;;20.50;21.27
48718;BME280;34521;33.042;-96.586;2023-12-20T11:56:09;100418.75;;;21.34;20.74
48718;BME280;34521;33.042;-96.586;2023-12-20T11:58:34;100418.94;;;21.90;20.36
48718;BME280;34521;33.042;-96.586;2023-12-20T12:00:58;100421.56;;;21.17;20.66
48718;BME280;34521;33.042;-96.586;2023-12-20T12:03:24;100427.63;;;22.49;19.85
48718;BME280;34521;33.042;-96.586;2023-12-20T12:05:50;100430.28;;;22.74;19.49
48718;BME280;34521;33.042;-96.586;2023-12-20T12:08:14;100428.95;;;21.21;20.61
48718;BME280;34521;33.042;-96.586;2023-12-20T12:10:38;100423.99;;;21.97;20.11
48718;BME280;34521;33.042;-96.586;2023-12-20T12:13:06;100431.56;;;23.17;19.32
48718;BME280;34521;33.042;-96.586;2023-12-20T12:15:30;100438.50;;;23.03;19.30
48718;BME280;34521;33.042;-96.586;2023-12-20T12:17:55;100441.75;;;21.68;20.22